Terminal Aerodrome Forecast
Issued by NWS Midland/Odessa, TX

Home | Current Version | Previous Version | Text Only | Print | Product List | Glossary On
Versions: 1 2 3 4 5 6 7 8 9 10 11 12
000
FTUS44 KMAF 032300
TAFMAF
TAF
KMAF 032325Z 0400/0424 16016G24KT P6SM SCT100 BKN200
     FM040400 15012KT P6SM BKN100
     FM041200 14010KT P6SM BKN010
     FM041700 15018G25KT P6SM OVC040=

USA.gov is the U.S. government's official web portal to all federal, state and local government web resources and services.